This is the latest recevied weather packets stored in our database for station/object DK9HI-WX. If no packets are shown the sender has not sent any weather packets the latest 10 day(s).
| Time | Temp. | Humidity | Pressure | Rain* | Wind** | Luminosity | Snow |
|---|---|---|---|---|---|---|---|
| 1777535575 | 11.11° C | 46% | 1034 hPa | - | - | - | - |
| 1777534975 | 10.56° C | 47% | 1033.9 hPa | - | - | - | - |
| 1777534377 | 10° C | 50% | 1033.9 hPa | - | - | - | - |
| 1777533775 | 10° C | 51% | 1034 hPa | - | - | - | - |
| 1777533175 | 9.44° C | 52% | 1033.9 hPa | - | - | - | - |
| 1777532575 | 8.89° C | 55% | 1034.1 hPa | - | - | - | - |
| 1777531975 | 8.89° C | 54% | 1034 hPa | - | - | - | - |
| 1777531375 | 8.33° C | 56% | 1034 hPa | - | - | - | - |
| 1777530775 | 7.78° C | 56% | 1033.9 hPa | - | - | - | - |
| 1777530175 | 7.78° C | 55% | 1033.9 hPa | - | - | - | - |
| 1777529576 | 7.22° C | 59% | 1033.9 hPa | - | - | - | - |
| 1777528975 | 7.22° C | 60% | 1033.8 hPa | - | - | - | - |
| 1777528375 | 6.67° C | 61% | 1033.9 hPa | - | - | - | - |
| 1777527775 | 6.11° C | 64% | 1033.9 hPa | - | - | - | - |
| 1777527175 | 6.11° C | 65% | 1033.8 hPa | - | - | - | - |
| 1777526575 | 5.56° C | 68% | 1033.8 hPa | - | - | - | - |
| 1777525974 | 5° C | 70% | 1033.9 hPa | - | - | - | - |
| 1777525375 | 4.44° C | 70% | 1033.7 hPa | - | - | - | - |
| 1777524775 | 4.44° C | 70% | 1033.6 hPa | - | - | - | - |
| 1777524175 | 4.44° C | 69% | 1033.5 hPa | - | - | - | - |
| 1777523575 | 4.44° C | 69% | 1033.4 hPa | - | - | - | - |
| 1777522974 | 4.44° C | 68% | 1033.4 hPa | - | - | - | - |
| 1777522374 | 4.44° C | 68% | 1033.2 hPa | - | - | - | - |
| 1777521774 | 4.44° C | 68% | 1033.2 hPa | - | - | - | - |
| 1777521174 | 4.44° C | 68% | 1033.2 hPa | - | - | - | - |
* Rain since midnight (hover to see other rain measurements)
** Current wind speed in m/s (hover to see current wind gust speed)